Time;durP1;ratioP1;P1;durP2;ratioP2;P2;SDS_P1;SDS_P2;PMS_P1;PMS_P2;Temp;Humidity;BMP_temperature;BMP_pressure;BME280_temperature;BME280_humidity;BME280_pressure;Samples;Min_cycle;Max_cycle;Signal;HPM_P1;HPM_P2
2023/04/05 03:01:21;;;;;;;3.87;3.03;;;4.50;63.10;;;;;;5692847;23;21004;-76
2023/04/05 03:03:48;;;;;;;3.70;3.03;;;4.50;62.80;;;;;;4993633;28;20449;-76
2023/04/05 03:06:14;;;;;;;3.97;2.93;;;4.50;63.10;;;;;;4993525;28;20469;-76
2023/04/05 03:08:43;;;;;;;3.23;2.93;;;4.50;63.60;;;;;;4993557;28;20446;-76
2023/04/05 03:11:10;;;;;;;3.50;2.87;;;4.50;63.40;;;;;;4993475;28;20552;-76
2023/04/05 03:13:37;;;;;;;3.33;3.00;;;4.50;63.00;;;;;;4995881;28;20499;-76
2023/04/05 03:16:04;;;;;;;3.40;2.90;;;4.50;62.90;;;;;;4997256;28;20441;-75
2023/04/05 03:18:32;;;;;;;4.23;3.30;;;4.50;62.90;;;;;;4996821;28;21007;-76
2023/04/05 03:20:59;;;;;;;3.90;3.50;;;4.50;62.80;;;;;;4996992;28;20461;-75
2023/04/05 03:23:28;;;;;;;3.90;2.87;;;4.50;62.70;;;;;;4997110;28;20440;-76
2023/04/05 03:25:57;;;;;;;4.43;3.63;;;4.40;63.30;;;;;;4997068;28;20504;-76
2023/04/05 03:28:24;;;;;;;3.50;3.10;;;4.40;63.10;;;;;;4996753;28;20989;-76
2023/04/05 03:30:51;;;;;;;5.73;3.30;;;4.50;62.80;;;;;;4997019;28;20488;-76
2023/04/05 03:33:18;;;;;;;3.90;3.30;;;4.40;63.20;;;;;;4997011;28;20441;-76
2023/04/05 03:35:46;;;;;;;3.30;3.00;;;4.40;63.40;;;;;;4996899;28;20499;-76
2023/04/05 03:38:13;;;;;;;3.40;2.87;;;4.30;63.20;;;;;;4996713;28;20973;-75
2023/04/05 03:40:40;;;;;;;3.97;3.57;;;4.30;63.40;;;;;;4996656;28;20473;-76
2023/04/05 03:43:07;;;;;;;3.73;2.70;;;4.30;63.80;;;;;;4996287;28;21005;-76
2023/04/05 03:45:34;;;;;;;3.07;2.50;;;4.20;63.50;;;;;;4996561;28;20453;-76
2023/04/05 03:48:01;;;;;;;4.50;3.20;;;4.20;63.40;;;;;;4996371;28;20935;-76
2023/04/05 03:50:28;;;;;;;4.30;3.63;;;4.20;63.30;;;;;;4996839;28;20512;-76
2023/04/05 03:52:56;;;;;;;3.97;3.27;;;4.20;63.20;;;;;;4996533;28;20453;-76
2023/04/05 03:55:23;;;;;;;4.27;3.10;;;4.20;63.60;;;;;;4996490;28;20496;-76
2023/04/05 03:57:50;;;;;;;4.23;3.80;;;4.10;63.80;;;;;;4997190;28;20504;-76
2023/04/05 04:00:17;;;;;;;4.20;3.80;;;4.10;63.70;;;;;;4996465;28;20457;-76
2023/04/05 04:02:44;;;;;;;4.37;3.70;;;4.10;63.60;;;;;;4996893;28;20520;-75
2023/04/05 04:05:12;;;;;;;4.47;3.30;;;4.10;64.10;;;;;;5018929;28;20452;-75
2023/04/05 04:07:40;;;;;;;4.17;3.40;;;4.10;64.00;;;;;;5002426;28;20536;-76
2023/04/05 04:10:10;;;;;;;3.53;3.10;;;4.00;64.00;;;;;;4997254;28;20539;-76
2023/04/05 04:12:37;;;;;;;5.50;3.13;;;4.00;63.80;;;;;;4996838;28;20461;-76
2023/04/05 04:15:04;;;;;;;4.50;4.07;;;4.00;63.80;;;;;;4996974;28;20449;-76
2023/04/05 04:17:33;;;;;;;4.97;4.33;;;3.90;64.10;;;;;;4997154;28;20485;-76
2023/04/05 04:20:00;;;;;;;6.70;4.93;;;3.90;64.40;;;;;;4996608;28;20449;-76
2023/04/05 04:22:31;;;;;;;5.07;4.07;;;3.90;64.60;;;;;;4996529;28;20516;-76
2023/04/05 04:25:01;;;;;;;5.37;4.57;;;3.90;64.10;;;;;;4996435;28;20430;-76
2023/04/05 04:27:30;;;;;;;4.70;3.80;;;3.90;64.30;;;;;;4996648;28;20544;-76
2023/04/05 04:30:00;;;;;;;4.23;3.50;;;3.80;64.50;;;;;;4996199;28;20942;-76
2023/04/05 04:32:46;;;;;;;5.23;3.57;;;3.80;64.20;;;;;;4996865;28;20469;-75
2023/04/05 04:35:16;;;;;;;4.10;3.70;;;3.80;64.20;;;;;;4996000;28;20473;-75
2023/04/05 04:37:45;;;;;;;5.10;3.30;;;3.80;64.40;;;;;;4996056;28;20469;-76
2023/04/05 04:40:16;;;;;;;5.30;4.00;;;3.70;64.70;;;;;;4995938;28;20454;-76
2023/04/05 04:42:45;;;;;;;3.80;3.10;;;3.70;64.60;;;;;;4995419;28;21028;-76
2023/04/05 04:45:15;;;;;;;5.00;3.80;;;3.70;64.20;;;;;;4996095;28;20511;-75
2023/04/05 04:47:42;;;;;;;5.00;4.50;;;3.70;64.30;;;;;;4995699;28;20507;-76
2023/04/05 04:50:10;;;;;;;5.77;5.03;;;3.60;64.20;;;;;;4995530;28;20485;-75
2023/04/05 04:52:37;;;;;;;5.57;5.00;;;3.60;64.30;;;;;;4995374;28;20911;-76
2023/04/05 04:55:04;;;;;;;6.70;5.40;;;3.60;64.50;;;;;;4995330;28;20504;-76
2023/04/05 04:57:31;;;;;;;7.17;6.57;;;3.60;64.30;;;;;;4995220;28;20464;-76
2023/04/05 04:59:59;;;;;;;6.03;5.43;;;3.60;64.50;;;;;;4995253;28;20454;-76
2023/04/05 05:02:26;;;;;;;7.13;5.50;;;3.60;64.80;;;;;;4994882;28;20567;-76
2023/04/05 05:04:53;;;;;;;6.20;5.60;;;3.50;64.80;;;;;;4995282;28;20453;-76
2023/04/05 05:07:21;;;;;;;5.40;4.90;;;3.60;64.60;;;;;;4995293;28;20445;-75
2023/04/05 05:09:51;;;;;;;4.97;4.47;;;3.60;64.60;;;;;;4995434;28;20540;-76
2023/04/05 05:12:18;;;;;;;5.43;4.93;;;3.60;64.70;;;;;;4995673;28;20471;-76
2023/04/05 05:14:45;;;;;;;4.13;3.50;;;3.60;65.00;;;;;;4995500;28;20445;-76
2023/04/05 05:17:13;;;;;;;5.93;3.57;;;3.70;65.20;;;;;;4995757;28;20508;-75
2023/04/05 05:19:41;;;;;;;3.80;3.23;;;3.70;65.30;;;;;;4995407;28;20529;-76
2023/04/05 05:22:07;;;;;;;5.37;3.60;;;3.70;65.40;;;;;;4994892;28;20543;-75
2023/04/05 05:24:34;;;;;;;4.20;3.80;;;3.80;65.30;;;;;;4994906;28;20457;-76
2023/04/05 05:27:01;;;;;;;4.27;3.50;;;3.90;65.10;;;;;;4994757;28;20965;-75
2023/04/05 05:29:28;;;;;;;5.27;4.10;;;4.00;64.70;;;;;;4994915;28;20449;-76
2023/04/05 05:31:54;;;;;;;5.50;2.83;;;4.20;64.60;;;;;;4994795;28;20515;-76
2023/04/05 05:34:23;;;;;;;4.33;3.20;;;4.30;64.40;;;;;;4994893;28;20449;-76
2023/04/05 05:36:50;;;;;;;4.40;3.67;;;4.50;64.60;;;;;;4994946;28;20785;-75
2023/04/05 05:39:17;;;;;;;3.80;3.40;;;4.60;64.20;;;;;;4994915;28;20450;-75
2023/04/05 05:41:44;;;;;;;5.20;4.13;;;4.70;64.00;;;;;;4994531;28;20469;-76
2023/04/05 05:44:11;;;;;;;4.27;3.40;;;4.90;63.60;;;;;;4994158;28;20511;-75
2023/04/05 05:46:38;;;;;;;4.87;3.50;;;5.10;64.10;;;;;;4994731;28;20449;-76
2023/04/05 05:49:05;;;;;;;3.40;2.87;;;5.30;63.90;;;;;;4994145;28;21009;-76
2023/04/05 05:51:32;;;;;;;4.40;3.67;;;5.50;63.60;;;;;;4994088;28;20469;-76
2023/04/05 05:54:00;;;;;;;4.90;3.80;;;5.70;62.60;;;;;;4994102;28;20939;-75
2023/04/05 05:56:27;;;;;;;6.43;5.33;;;5.90;61.90;;;;;;4994975;28;20455;-77
2023/04/05 05:58:54;;;;;;;4.27;3.40;;;6.30;61.30;;;;;;4998472;28;20484;-76
2023/04/05 06:01:26;;;;;;;6.70;4.33;;;7.20;59.70;;;;;;4998379;28;20493;-75
2023/04/05 06:03:53;;;;;;;4.57;4.13;;;8.40;56.50;;;;;;4997698;28;20492;-76
2023/04/05 06:06:20;;;;;;;6.27;5.40;;;9.70;54.50;;;;;;4996447;28;20457;-75
2023/04/05 06:08:50;;;;;;;6.27;5.70;;;11.00;51.50;;;;;;4995314;28;20504;-75
2023/04/05 06:11:18;;;;;;;4.83;4.17;;;12.20;49.20;;;;;;4994252;28;20504;-74
2023/04/05 06:13:44;;;;;;;4.67;4.20;;;13.20;46.70;;;;;;4994432;28;20450;-76
2023/04/05 06:16:11;;;;;;;3.73;3.20;;;14.00;44.90;;;;;;4994558;28;20453;-76
2023/04/05 06:18:38;;;;;;;4.07;3.50;;;15.00;42.40;;;;;;4994702;28;20485;-76
2023/04/05 06:21:05;;;;;;;7.00;3.50;;;15.60;40.10;;;;;;4993755;28;20891;-75
2023/04/05 06:23:31;;;;;;;3.50;3.20;;;16.30;39.30;;;;;;4993857;28;20477;-76
2023/04/05 06:25:59;;;;;;;3.70;3.33;;;16.90;38.20;;;;;;4993946;28;20462;-75
2023/04/05 06:28:26;;;;;;;4.40;3.10;;;16.80;36.40;;;;;;4994083;28;20450;-76
2023/04/05 06:30:54;;;;;;;3.90;3.27;;;16.10;37.70;;;;;;4993885;28;20497;-75
2023/04/05 06:33:20;;;;;;;4.10;3.50;;;17.00;37.80;;;;;;4993861;28;20532;-76
2023/04/05 06:35:47;;;;;;;4.30;3.43;;;17.50;36.90;;;;;;4993746;28;20448;-76
2023/04/05 06:38:14;;;;;;;4.40;4.00;;;17.90;36.00;;;;;;4993684;28;20453;-76
2023/04/05 06:40:41;;;;;;;4.30;3.60;;;18.40;35.30;;;;;;4993530;28;20987;-77
2023/04/05 06:43:09;;;;;;;3.27;2.83;;;18.90;34.70;;;;;;4993726;28;20858;-76
2023/04/05 06:45:36;;;;;;;3.90;3.20;;;19.40;33.00;;;;;;4993339;28;20457;-75
2023/04/05 06:48:03;;;;;;;3.50;2.80;;;18.80;33.40;;;;;;4996420;28;20453;-74
2023/04/05 06:50:30;;;;;;;3.50;3.20;;;18.00;34.30;;;;;;4997461;28;20449;-75
2023/04/05 06:52:57;;;;;;;4.00;3.23;;;18.10;33.60;;;;;;4997732;28;20528;-75
2023/04/05 06:55:23;;;;;;;4.47;3.30;;;17.70;35.00;;;;;;4997958;28;20821;-75
2023/04/05 06:57:50;;;;;;;4.10;3.20;;;18.20;35.00;;;;;;4997093;28;20850;-76
2023/04/05 07:00:19;;;;;;;4.17;3.77;;;18.80;34.30;;;;;;4997535;28;20456;-75
2023/04/05 07:02:46;;;;;;;3.60;3.30;;;19.20;34.10;;;;;;4996910;28;20547;-76
2023/04/05 07:05:12;;;;;;;3.77;2.90;;;19.40;34.10;;;;;;4997413;28;20449;-75
2023/04/05 07:07:39;;;;;;;5.33;3.50;;;18.50;33.70;;;;;;4997299;28;20504;-75
2023/04/05 07:10:07;;;;;;;4.70;3.63;;;17.10;35.50;;;;;;4997275;28;20456;-75
2023/04/05 07:12:34;;;;;;;3.97;3.43;;;15.50;37.40;;;;;;4996890;28;20843;-75
2023/04/05 07:15:01;;;;;;;3.50;2.97;;;14.40;40.20;;;;;;4997005;28;20942;-75
2023/04/05 07:17:29;;;;;;;3.90;3.30;;;12.80;40.30;;;;;;4998317;28;20466;-75
2023/04/05 07:19:55;;;;;;;4.40;4.00;;;11.30;43.20;;;;;;4996802;28;20449;-75
2023/04/05 07:22:22;;;;;;;3.43;3.00;;;10.10;45.70;;;;;;4997590;28;20520;-75
2023/04/05 07:24:49;;;;;;;4.03;3.63;;;9.40;48.00;;;;;;4998137;28;20453;-73
2023/04/05 07:27:15;;;;;;;3.73;3.33;;;8.80;49.20;;;;;;4998041;28;20453;-75
2023/04/05 07:29:43;;;;;;;4.10;3.43;;;8.40;50.20;;;;;;4997421;28;20539;-75
2023/04/05 07:32:10;;;;;;;5.63;3.80;;;7.90;51.10;;;;;;4997183;28;20473;-74
2023/04/05 07:34:38;;;;;;;3.60;3.03;;;7.80;53.10;;;;;;4997027;28;20496;-75
2023/04/05 07:37:06;;;;;;;4.10;3.70;;;7.70;53.20;;;;;;4997125;28;20507;-74
2023/04/05 07:39:33;;;;;;;5.80;3.53;;;7.30;53.90;;;;;;4996835;28;20499;-74
2023/04/05 07:41:59;;;;;;;4.97;3.50;;;7.60;53.80;;;;;;4996337;28;20982;-75
2023/04/05 07:44:26;;;;;;;4.40;4.00;;;7.60;52.90;;;;;;4996499;28;20500;-75
2023/04/05 07:46:53;;;;;;;3.73;3.33;;;7.60;53.30;;;;;;4997194;28;20473;-75
2023/04/05 07:49:24;;;;;;;3.97;2.87;;;7.40;52.90;;;;;;4996436;28;20453;-74
2023/04/05 07:51:55;;;;;;;4.03;3.10;;;7.10;52.20;;;;;;4996190;28;20966;-75
2023/04/05 07:54:22;;;;;;;3.87;3.47;;;7.10;53.40;;;;;;4996136;28;20421;-75
2023/04/05 07:56:49;;;;;;;4.07;3.00;;;7.10;53.60;;;;;;4996629;28;20440;-74
2023/04/05 07:59:16;;;;;;;4.40;3.47;;;7.10;54.50;;;;;;4995550;28;20453;-74
2023/04/05 08:01:43;;;;;;;3.83;2.93;;;7.20;53.40;;;;;;4996142;28;20560;-74
2023/04/05 08:04:09;;;;;;;3.67;3.17;;;7.40;53.10;;;;;;4996670;28;20540;-75
2023/04/05 08:06:36;;;;;;;4.47;3.00;;;7.40;53.90;;;;;;4997229;28;20449;-75
2023/04/05 08:09:04;;;;;;;3.53;3.23;;;7.60;54.10;;;;;;4996835;28;20541;-74
2023/04/05 08:11:32;;;;;;;4.30;3.50;;;7.80;52.40;;;;;;4996320;28;20987;-75
2023/04/05 08:13:58;;;;;;;4.50;2.90;;;8.00;53.30;;;;;;4996882;28;20445;-75
2023/04/05 08:16:25;;;;;;;3.30;3.00;;;8.20;52.70;;;;;;4996751;28;20560;-74
2023/04/05 08:18:52;;;;;;;5.03;4.07;;;8.50;51.70;;;;;;4996762;28;20454;-74
2023/04/05 08:21:18;;;;;;;3.77;2.93;;;8.20;51.40;;;;;;4996428;28;20473;-73
2023/04/05 08:23:45;;;;;;;4.87;3.80;;;8.10;52.80;;;;;;4996517;28;20480;-75
2023/04/05 08:26:13;;;;;;;3.37;2.50;;;8.30;51.00;;;;;;4996019;28;20454;-75
2023/04/05 08:28:40;;;;;;;2.90;2.53;;;8.10;51.10;;;;;;4995893;28;20449;-76
2023/04/05 08:31:07;;;;;;;4.10;3.30;;;8.20;51.60;;;;;;4995918;28;20985;-75
2023/04/05 08:33:33;;;;;;;3.77;2.90;;;8.40;52.30;;;;;;4996084;28;20446;-75
2023/04/05 08:36:04;;;;;;;4.67;3.43;;;8.60;50.50;;;;;;4995989;28;20453;-76
2023/04/05 08:38:31;;;;;;;4.57;3.23;;;8.80;49.70;;;;;;4996296;28;20438;-76
2023/04/05 08:41:07;;;;;;;2.83;2.40;;;8.60;49.30;;;;;;4995923;28;20469;-76
2023/04/05 08:43:46;;;;;;;3.40;2.67;;;8.70;49.40;;;;;;4995414;28;20555;-77
2023/04/05 08:46:15;;;;;;;2.90;2.53;;;8.80;48.10;;;;;;4995799;28;20441;-75
2023/04/05 08:48:42;;;;;;;3.60;2.10;;;9.10;46.30;;;;;;4995845;28;20488;-76
2023/04/05 08:51:10;;;;;;;4.17;2.50;;;8.90;44.30;;;;;;4995619;28;21060;-74
2023/04/05 08:53:36;;;;;;;3.67;2.80;;;8.40;45.40;;;;;;4995583;28;20453;-75
2023/04/05 08:56:04;;;;;;;3.60;2.53;;;8.30;47.70;;;;;;4995508;28;20457;-74
2023/04/05 08:58:33;;;;;;;2.50;1.90;;;8.50;45.80;;;;;;4995316;28;20456;-75
2023/04/05 09:01:02;;;;;;;3.40;2.13;;;8.40;45.90;;;;;;4995007;28;20580;-75
2023/04/05 09:03:34;;;;;;;3.10;2.23;;;8.50;45.60;;;;;;4995145;28;20465;-74
2023/04/05 09:06:02;;;;;;;2.70;1.93;;;8.20;43.80;;;;;;4995010;28;20916;-74
2023/04/05 09:08:29;;;;;;;3.20;2.10;;;8.00;45.20;;;;;;4994575;28;20445;-74
2023/04/05 09:10:56;;;;;;;3.83;2.10;;;8.10;44.40;;;;;;4994725;28;20473;-74
2023/04/05 09:13:29;;;;;;;2.60;2.10;;;8.30;44.50;;;;;;4995240;28;20548;-75
2023/04/05 09:15:56;;;;;;;2.30;1.60;;;8.00;44.20;;;;;;4995134;28;20553;-74
2023/04/05 09:18:24;;;;;;;2.63;1.77;;;8.10;45.80;;;;;;4994892;28;20927;-75
2023/04/05 09:20:51;;;;;;;3.20;2.60;;;8.00;45.60;;;;;;4994952;28;20468;-75
2023/04/05 09:23:17;;;;;;;3.67;2.10;;;7.80;45.20;;;;;;4995266;28;20486;-75
2023/04/05 09:25:46;;;;;;;2.50;1.83;;;7.80;46.20;;;;;;4994923;28;20560;-75
2023/04/05 09:28:13;;;;;;;2.30;1.70;;;7.80;46.10;;;;;;4995058;28;20453;-75
2023/04/05 09:30:46;;;;;;;3.13;2.37;;;7.80;46.10;;;;;;4995060;28;20449;-75
2023/04/05 09:33:18;;;;;;;4.07;2.97;;;7.50;46.20;;;;;;4994780;28;20786;-74
2023/04/05 09:35:50;;;;;;;4.67;2.47;;;7.60;46.90;;;;;;4994886;28;20493;-74
2023/04/05 09:38:17;;;;;;;2.97;2.00;;;7.60;46.90;;;;;;4994887;28;20461;-75
2023/04/05 09:40:45;;;;;;;3.63;2.20;;;7.50;46.20;;;;;;4998417;28;20481;-75
2023/04/05 09:43:12;;;;;;;2.80;1.90;;;7.50;46.30;;;;;;4997939;28;20450;-75
2023/04/05 09:45:40;;;;;;;2.97;2.27;;;7.70;47.30;;;;;;4995992;28;20445;-75
2023/04/05 09:48:07;;;;;;;3.20;2.30;;;7.80;47.40;;;;;;4994853;28;20453;-74
2023/04/05 09:50:34;;;;;;;3.20;2.00;;;7.70;47.20;;;;;;4994664;28;20457;-75
2023/04/05 09:53:14;;;;;;;3.10;2.50;;;7.40;47.80;;;;;;4995169;28;20453;-76
2023/04/05 09:55:41;;;;;;;3.50;2.60;;;7.50;47.90;;;;;;4994774;28;20437;-76
2023/04/05 09:58:12;;;;;;;2.50;2.00;;;7.70;49.20;;;;;;4994064;28;20449;-75
2023/04/05 10:00:38;;;;;;;4.07;2.80;;;7.90;45.20;;;;;;4993864;28;20764;-75
2023/04/05 10:03:05;;;;;;;3.23;2.53;;;7.90;45.60;;;;;;4994358;28;20827;-74
2023/04/05 10:05:32;;;;;;;3.33;2.40;;;7.40;46.70;;;;;;4993873;28;21018;-76
2023/04/05 10:07:59;;;;;;;3.67;2.60;;;7.50;48.50;;;;;;4993800;28;20973;-75
2023/04/05 10:10:31;;;;;;;3.00;2.40;;;7.50;48.10;;;;;;4994100;28;20873;-76
2023/04/05 10:12:58;;;;;;;3.37;2.43;;;7.70;48.20;;;;;;4994103;28;20434;-75
2023/04/05 10:15:26;;;;;;;4.10;2.47;;;7.80;49.20;;;;;;4994114;28;20467;-75
2023/04/05 10:18:01;;;;;;;3.53;3.00;;;7.90;47.80;;;;;;4993886;28;20457;-75
2023/04/05 10:20:31;;;;;;;5.47;2.57;;;7.90;47.10;;;;;;4994426;28;20437;-75
2023/04/05 10:23:04;;;;;;;4.57;2.53;;;8.20;48.30;;;;;;4994364;28;20449;-75
2023/04/05 10:25:46;;;;;;;3.30;2.37;;;8.50;45.40;;;;;;5011358;28;20496;-75
2023/04/05 10:28:21;;;;;;;3.50;2.50;;;8.60;47.50;;;;;;5017806;28;20422;-75
2023/04/05 10:30:51;;;;;;;4.63;2.97;;;8.20;46.70;;;;;;5008332;28;20515;-76
2023/04/05 10:33:21;;;;;;;3.30;2.70;;;8.30;47.10;;;;;;4996433;28;20465;-75
2023/04/05 10:35:58;;;;;;;3.17;2.87;;;8.50;46.70;;;;;;4997362;28;20476;-76
2023/04/05 10:38:26;;;;;;;3.50;2.27;;;8.80;46.30;;;;;;4994976;28;20430;-76
2023/04/05 10:41:09;;;;;;;3.83;2.97;;;8.90;45.00;;;;;;4995081;28;20477;-76
2023/04/05 10:43:38;;;;;;;3.20;2.40;;;9.20;46.50;;;;;;4994894;28;20888;-76
2023/04/05 10:46:07;;;;;;;3.47;2.10;;;9.50;44.00;;;;;;4994075;28;20452;-76
2023/04/05 10:48:44;;;;;;;3.20;2.60;;;9.30;44.60;;;;;;4993909;28;20449;-76
2023/04/05 10:51:12;;;;;;;3.10;2.63;;;9.20;44.80;;;;;;4993936;28;20473;-77
2023/04/05 10:53:40;;;;;;;5.47;3.17;;;8.60;45.40;;;;;;4994097;28;20441;-77
2023/04/05 10:56:09;;;;;;;3.73;3.03;;;8.50;48.10;;;;;;4993998;28;20450;-77
2023/04/05 10:58:38;;;;;;;3.30;2.30;;;8.60;45.90;;;;;;4993615;28;20544;-76
2023/04/05 11:01:06;;;;;;;2.87;2.57;;;8.70;46.50;;;;;;4993875;28;20485;-78
2023/04/05 11:03:47;;;;;;;2.90;2.43;;;8.90;46.50;;;;;;4993780;28;20488;-76
2023/04/05 11:06:22;;;;;;;3.13;2.63;;;8.90;46.10;;;;;;4994133;28;20512;-77
2023/04/05 11:08:52;;;;;;;3.40;2.37;;;9.00;44.20;;;;;;4993734;28;20454;-76
2023/04/05 11:11:23;;;;;;;3.60;2.57;;;9.00;46.30;;;;;;4994002;28;20469;-75
2023/04/05 11:13:51;;;;;;;4.70;3.50;;;9.30;47.20;;;;;;4993815;28;20791;-78
2023/04/05 11:16:18;;;;;;;4.43;2.33;;;9.80;46.00;;;;;;4993866;28;20449;-77
2023/04/05 11:18:46;;;;;;;3.00;2.40;;;9.90;44.80;;;;;;4993850;28;20454;-77
2023/04/05 11:21:22;;;;;;;3.20;2.70;;;10.20;45.70;;;;;;4993746;28;20557;-77
2023/04/05 11:24:06;;;;;;;2.40;2.10;;;10.10;45.50;;;;;;4993391;28;20472;-77
2023/04/05 11:26:56;;;;;;;3.23;2.83;;;10.30;45.20;;;;;;4993574;28;20434;-77
2023/04/05 11:29:48;;;;;;;2.70;2.20;;;10.30;44.80;;;;;;4993563;28;20473;-76
2023/04/05 11:32:15;;;;;;;3.33;2.73;;;10.20;42.30;;;;;;4993488;28;20461;-77
2023/04/05 11:34:43;;;;;;;4.70;2.90;;;10.10;42.90;;;;;;4995516;28;20852;-76
2023/04/05 11:37:10;;;;;;;3.83;2.60;;;9.70;41.80;;;;;;4997309;28;20536;-76
2023/04/05 11:39:38;;;;;;;4.97;3.27;;;9.90;44.30;;;;;;4996859;28;20528;-76
2023/04/05 11:42:11;;;;;;;3.90;2.63;;;10.20;44.90;;;;;;4996927;28;20475;-76
2023/04/05 11:44:43;;;;;;;3.10;2.47;;;10.30;41.60;;;;;;4996566;28;20469;-76
2023/04/05 11:47:10;;;;;;;3.30;2.80;;;10.40;43.80;;;;;;4996466;28;20445;-75
2023/04/05 11:49:38;;;;;;;4.47;2.90;;;10.50;43.70;;;;;;4997060;28;20536;-74
2023/04/05 11:52:12;;;;;;;3.20;2.50;;;10.40;44.10;;;;;;4997952;28;20890;-74
2023/04/05 11:54:44;;;;;;;3.33;2.60;;;10.50;44.80;;;;;;4997684;28;20503;-73
2023/04/05 11:57:15;;;;;;;4.27;2.20;;;10.90;42.40;;;;;;4997845;28;20481;-74
2023/04/05 11:59:42;;;;;;;4.27;3.30;;;11.00;42.60;;;;;;4997394;28;20468;-74
2023/04/05 12:02:09;;;;;;;2.90;2.60;;;10.80;42.80;;;;;;4996211;28;20544;-74
2023/04/05 12:04:36;;;;;;;3.13;2.80;;;10.40;43.20;;;;;;4996381;28;20495;-74
2023/04/05 12:07:14;;;;;;;3.83;2.90;;;10.40;43.70;;;;;;4996539;28;20553;-74
2023/04/05 12:10:14;;;;;;;3.60;2.90;;;11.00;43.90;;;;;;4995889;28;20813;-74
2023/04/05 12:12:46;;;;;;;3.47;2.80;;;11.60;42.60;;;;;;4996171;28;20477;-75
2023/04/05 12:15:16;;;;;;;3.93;2.40;;;12.20;42.50;;;;;;4996755;28;20434;-76
2023/04/05 12:17:45;;;;;;;3.57;2.47;;;12.40;40.80;;;;;;4997481;28;20480;-73
2023/04/05 12:20:13;;;;;;;3.23;2.90;;;12.60;40.70;;;;;;4996204;28;20449;-76
2023/04/05 12:22:42;;;;;;;3.87;2.53;;;12.40;40.50;;;;;;4996607;28;20473;-75
2023/04/05 12:25:09;;;;;;;5.43;2.60;;;12.30;42.10;;;;;;4996906;28;20490;-75
2023/04/05 12:27:36;;;;;;;3.40;2.40;;;12.20;39.90;;;;;;4996292;28;20450;-76
2023/04/05 12:30:16;;;;;;;3.73;2.83;;;11.60;40.10;;;;;;4996410;28;20441;-76
2023/04/05 12:32:45;;;;;;;3.50;2.57;;;11.60;40.70;;;;;;4996069;28;20465;-75
2023/04/05 12:35:13;;;;;;;3.33;2.53;;;11.90;40.60;;;;;;4995967;28;20454;-75
2023/04/05 12:37:40;;;;;;;3.33;2.57;;;12.10;39.30;;;;;;4996070;28;20434;-75
2023/04/05 12:40:08;;;;;;;2.50;2.23;;;12.20;39.90;;;;;;4996207;28;20500;-75
2023/04/05 12:42:37;;;;;;;5.03;2.90;;;12.20;41.00;;;;;;4995880;28;20477;-75
2023/04/05 12:45:05;;;;;;;3.80;2.93;;;12.10;40.60;;;;;;4995963;28;20485;-77
2023/04/05 12:47:35;;;;;;;2.63;2.10;;;12.00;39.40;;;;;;4995768;28;20499;-77
2023/04/05 12:50:15;;;;;;;2.60;2.10;;;12.20;38.60;;;;;;4996337;28;20456;-76
2023/04/05 12:52:52;;;;;;;3.30;2.70;;;12.30;40.40;;;;;;4996528;28;21013;-77
2023/04/05 12:55:20;;;;;;;3.30;2.83;;;12.80;38.70;;;;;;4996664;28;20441;-76
2023/04/05 12:57:49;;;;;;;3.23;2.40;;;12.80;40.50;;;;;;4995694;28;20829;-76
2023/04/05 13:00:17;;;;;;;5.60;2.80;;;13.20;39.30;;;;;;4994976;28;20997;-76
2023/04/05 13:02:49;;;;;;;2.90;2.37;;;13.20;38.80;;;;;;4995011;28;20488;-75
2023/04/05 13:05:16;;;;;;;3.63;2.70;;;13.40;39.10;;;;;;4995562;28;20471;-76
2023/04/05 13:07:43;;;;;;;3.97;2.70;;;13.70;38.10;;;;;;4996020;28;20457;-76
2023/04/05 13:10:12;;;;;;;2.80;2.40;;;13.90;36.90;;;;;;4995360;28;20457;-76
2023/04/05 13:12:39;;;;;;;3.10;2.37;;;13.00;36.30;;;;;;4995033;28;20465;-75
2023/04/05 13:15:07;;;;;;;3.10;2.37;;;13.30;38.60;;;;;;4996043;28;20927;-77
2023/04/05 13:17:34;;;;;;;3.50;3.20;;;13.10;38.00;;;;;;4995422;28;20457;-76
2023/04/05 13:20:02;;;;;;;2.90;2.30;;;12.70;38.00;;;;;;4995842;28;20464;-77
2023/04/05 13:22:29;;;;;;;3.13;2.40;;;12.40;38.50;;;;;;4995003;28;21009;-76
2023/04/05 13:24:58;;;;;;;4.23;2.70;;;12.10;38.40;;;;;;4995369;28;20535;-76
2023/04/05 13:27:25;;;;;;;4.10;2.40;;;11.90;38.60;;;;;;4994915;28;20453;-76
2023/04/05 13:29:52;;;;;;;2.67;2.10;;;12.20;39.00;;;;;;4994852;28;20449;-76
2023/04/05 13:32:18;;;;;;;3.70;2.83;;;12.60;39.60;;;;;;4994937;28;20465;-76
2023/04/05 13:34:45;;;;;;;3.30;3.00;;;12.50;38.50;;;;;;4995326;28;20456;-76
2023/04/05 13:37:13;;;;;;;3.20;2.90;;;12.00;39.50;;;;;;4995030;28;20456;-77
2023/04/05 13:39:40;;;;;;;3.43;2.53;;;12.20;39.20;;;;;;4994941;28;20507;-75
2023/04/05 13:42:07;;;;;;;3.43;2.60;;;12.00;38.70;;;;;;4994456;28;20842;-76
2023/04/05 13:44:33;;;;;;;3.20;2.50;;;12.30;40.30;;;;;;4994271;28;20485;-76
2023/04/05 13:47:00;;;;;;;3.23;2.93;;;12.50;40.20;;;;;;4994933;28;20452;-76
2023/04/05 13:49:27;;;;;;;3.20;2.80;;;13.00;41.20;;;;;;4994210;28;20552;-75
2023/04/05 13:51:54;;;;;;;3.13;2.40;;;13.50;39.00;;;;;;4994267;28;20473;-75
2023/04/05 13:54:22;;;;;;;2.40;2.00;;;14.00;39.90;;;;;;4994280;28;20449;-75
2023/04/05 13:56:49;;;;;;;3.20;2.47;;;14.10;36.70;;;;;;4993636;28;20462;-75
2023/04/05 13:59:18;;;;;;;3.57;2.80;;;13.40;37.00;;;;;;4994161;28;20449;-76
2023/04/05 14:01:44;;;;;;;4.10;3.07;;;12.90;37.40;;;;;;4993830;28;20485;-76
2023/04/05 14:04:16;;;;;;;3.33;2.80;;;13.30;38.10;;;;;;4994044;28;20870;-75
2023/04/05 14:06:44;;;;;;;4.23;2.73;;;13.70;38.70;;;;;;4993872;28;20473;-75
2023/04/05 14:09:10;;;;;;;3.17;2.60;;;14.00;36.30;;;;;;4993844;28;20461;-76
2023/04/05 14:11:39;;;;;;;3.20;2.40;;;14.20;39.40;;;;;;4993982;28;20536;-75
2023/04/05 14:14:06;;;;;;;2.57;2.37;;;14.30;37.40;;;;;;4993862;28;20457;-76
2023/04/05 14:16:34;;;;;;;3.07;2.67;;;13.70;36.90;;;;;;4993716;28;20445;-76
2023/04/05 14:19:00;;;;;;;4.10;2.73;;;13.80;37.30;;;;;;4993808;28;20453;-76
2023/04/05 14:21:27;;;;;;;3.53;2.67;;;13.60;38.40;;;;;;4993829;28;20469;-75
2023/04/05 14:23:55;;;;;;;2.90;2.30;;;13.90;38.30;;;;;;4994166;28;20460;-75
2023/04/05 14:26:24;;;;;;;3.90;3.07;;;13.90;37.40;;;;;;4994657;28;20504;-75
2023/04/05 14:28:52;;;;;;;3.00;2.67;;;13.70;38.10;;;;;;4994389;28;20483;-76
2023/04/05 14:31:23;;;;;;;2.80;2.50;;;13.90;37.80;;;;;;4993778;28;20843;-75
2023/04/05 14:33:50;;;;;;;3.30;2.47;;;14.10;36.50;;;;;;4994301;28;20801;-76
2023/04/05 14:36:17;;;;;;;3.73;3.00;;;14.40;37.10;;;;;;4993708;28;20453;-76
2023/04/05 14:38:43;;;;;;;3.30;2.90;;;14.80;35.30;;;;;;4993403;28;20965;-76
2023/04/05 14:41:10;;;;;;;5.00;3.17;;;15.30;35.00;;;;;;4993724;28;20477;-76
2023/04/05 14:43:38;;;;;;;3.30;2.77;;;16.00;34.80;;;;;;4993838;28;20449;-76
2023/04/05 14:46:06;;;;;;;3.80;2.67;;;16.80;34.30;;;;;;4993611;28;20493;-77
2023/04/05 14:48:32;;;;;;;2.90;2.03;;;17.60;33.70;;;;;;4993793;28;20954;-76
2023/04/05 14:51:00;;;;;;;3.43;2.67;;;18.70;32.10;;;;;;4993656;28;20469;-78
2023/04/05 14:53:26;;;;;;;3.53;3.03;;;19.40;30.90;;;;;;4993601;28;20460;-76
2023/04/05 14:55:53;;;;;;;3.00;2.70;;;19.30;30.20;;;;;;4993812;28;20449;-77
2023/04/05 14:58:20;;;;;;;3.33;2.73;;;19.50;31.00;;;;;;4993515;28;20806;-76
2023/04/05 15:00:48;;;;;;;3.13;2.83;;;19.50;29.80;;;;;;4993812;28;20788;-77
2023/04/05 15:03:18;;;;;;;3.60;2.70;;;19.30;30.10;;;;;;4993705;28;20521;-77
2023/04/05 15:05:45;;;;;;;2.67;2.33;;;19.70;29.60;;;;;;4993354;28;20492;-76
2023/04/05 15:08:11;;;;;;;2.93;2.33;;;19.50;29.90;;;;;;4994910;28;20488;-76
2023/04/05 15:10:39;;;;;;;2.90;2.60;;;19.30;30.80;;;;;;4998596;28;20452;-75
2023/04/05 15:13:06;;;;;;;2.77;2.43;;;20.30;29.90;;;;;;4997429;28;20460;-75
2023/04/05 15:15:32;;;;;;;2.50;2.10;;;21.20;29.00;;;;;;4997762;28;20808;-75
2023/04/05 15:17:59;;;;;;;4.53;2.67;;;21.80;28.30;;;;;;4997398;28;20453;-76
2023/04/05 15:20:28;;;;;;;3.33;2.20;;;21.90;28.10;;;;;;4997134;28;20452;-75
2023/04/05 15:22:54;;;;;;;3.27;2.97;;;22.40;28.10;;;;;;4997252;28;20458;-74
2023/04/05 15:25:21;;;;;;;3.47;2.80;;;22.80;28.00;;;;;;4997128;28;20481;-74
2023/04/05 15:27:48;;;;;;;3.83;2.27;;;22.80;26.80;;;;;;4996992;28;20455;-74
2023/04/05 15:30:15;;;;;;;3.67;2.30;;;22.50;27.50;;;;;;4997039;28;20449;-74
2023/04/05 15:32:42;;;;;;;2.70;2.20;;;22.50;27.90;;;;;;4996343;28;21036;-75
2023/04/05 15:35:09;;;;;;;3.00;2.50;;;21.80;27.90;;;;;;4996743;28;20457;-74
2023/04/05 15:37:38;;;;;;;4.73;2.30;;;20.70;28.80;;;;;;4996678;28;20453;-73
2023/04/05 15:40:05;;;;;;;3.60;2.67;;;18.60;30.30;;;;;;4997027;28;20449;-77
2023/04/05 15:42:33;;;;;;;3.00;2.60;;;17.30;31.80;;;;;;4996931;28;20477;-76
2023/04/05 15:45:00;;;;;;;3.10;2.80;;;16.70;33.30;;;;;;4996475;28;20946;-76
2023/04/05 15:47:27;;;;;;;3.37;2.37;;;16.00;34.10;;;;;;4997005;28;20476;-76
2023/04/05 15:49:53;;;;;;;2.70;2.30;;;15.60;35.00;;;;;;4996848;28;20449;-76
2023/04/05 15:52:20;;;;;;;3.17;2.40;;;15.00;35.20;;;;;;4996820;28;20469;-75
2023/04/05 15:54:48;;;;;;;3.63;2.40;;;14.50;36.20;;;;;;4996844;28;20445;-76
2023/04/05 15:57:15;;;;;;;2.83;2.00;;;13.80;36.90;;;;;;4996836;28;20503;-77
2023/04/05 15:59:41;;;;;;;3.23;2.63;;;13.50;37.50;;;;;;4996271;28;20448;-76